Terminal Aerodrome Forecast
Issued by NWS Brownsville, TX

Home | Current Version | Previous Version | Text Only | Print | Product List | Glossary On
Versions: 1 2 3 4 5 6 7 8 9 10 11 12 13
000
FTUS44 KBRO 201700
TAFMFE
TAF
KMFE 201733Z 2018/2118 15017G24KT P6SM SCT045
     FM210800 14012KT P6SM FEW030
     FM211500 16017G26KT P6SM FEW040 SCT250=

USA.gov is the U.S. government's official web portal to all federal, state and local government web resources and services.